createdAt,value
2019-04-06T00:01:13.142Z,10.73
2019-04-06T00:06:37.533Z,10.77
2019-04-06T00:12:01.238Z,10.79
2019-04-06T00:17:26.205Z,10.90
2019-04-06T00:22:50.418Z,10.97
2019-04-06T00:28:14.228Z,11.00
2019-04-06T00:33:38.608Z,11.05
2019-04-06T00:39:02.485Z,11.04
2019-04-06T00:44:28.233Z,11.16
2019-04-06T00:49:53.763Z,11.16
2019-04-06T00:55:18.097Z,11.17
2019-04-06T01:00:41.950Z,11.13
2019-04-06T01:06:06.470Z,11.18
2019-04-06T01:11:30.181Z,11.19
2019-04-06T01:16:54.675Z,11.10
2019-04-06T01:22:19.136Z,10.97
2019-04-06T01:27:42.737Z,10.91
2019-04-06T01:33:06.463Z,10.85
2019-04-06T01:38:30.594Z,10.88
2019-04-06T01:43:54.415Z,10.56
2019-04-06T01:49:17.811Z,10.37
2019-04-06T01:54:41.420Z,10.21
2019-04-06T02:00:07.946Z,9.76
2019-04-06T02:05:32.198Z,9.37
2019-04-06T02:10:56.424Z,9.10
2019-04-06T02:16:20.919Z,8.83
2019-04-06T02:21:45.313Z,8.59
2019-04-06T02:27:09.535Z,8.33
2019-04-06T02:32:52.239Z,8.19
2019-04-06T02:38:27.710Z,8.23
2019-04-06T02:43:52.184Z,8.04
2019-04-06T02:49:16.541Z,7.86
2019-04-06T02:54:39.957Z,7.65
2019-04-06T03:00:04.351Z,7.84
2019-04-06T03:05:28.522Z,8.19
2019-04-06T03:10:52.752Z,8.23
2019-04-06T03:16:18.188Z,8.08
2019-04-06T03:21:41.639Z,7.78
2019-04-06T03:27:05.187Z,7.68
2019-04-06T03:32:29.514Z,7.45
2019-04-06T03:37:53.702Z,7.35
2019-04-06T03:43:18.141Z,7.45
2019-04-06T03:48:42.222Z,7.58
2019-04-06T03:54:06.817Z,7.66
2019-04-06T03:59:30.878Z,7.75
2019-04-06T04:04:55.063Z,7.74
2019-04-06T04:10:35.528Z,7.47
2019-04-06T04:15:58.895Z,7.56
2019-04-06T04:21:22.878Z,7.63
2019-04-06T04:26:47.105Z,7.91
2019-04-06T04:32:11.550Z,8.16
2019-04-06T04:37:35.787Z,8.38
2019-04-06T04:42:59.479Z,8.56
2019-04-06T04:48:23.522Z,8.53
2019-04-06T04:53:47.835Z,8.54
2019-04-06T04:59:11.723Z,8.60
2019-04-06T05:04:35.491Z,8.69
2019-04-06T05:09:59.967Z,8.78
2019-04-06T05:15:35.468Z,8.85
2019-04-06T05:20:59.322Z,9.10
2019-04-06T05:26:23.925Z,9.55
2019-04-06T05:31:47.300Z,10.05
2019-04-06T05:37:11.536Z,10.55
2019-04-06T05:42:36.150Z,11.05
2019-04-06T05:48:00.267Z,11.46
2019-04-06T05:53:24.584Z,12.01
2019-04-06T05:58:49.967Z,12.42
2019-04-06T06:04:13.866Z,12.69
2019-04-06T06:09:37.186Z,12.78
2019-04-06T06:15:01.266Z,13.13
2019-04-06T06:20:25.448Z,13.30
2019-04-06T06:25:49.755Z,13.70
2019-04-06T06:31:13.339Z,14.03
2019-04-06T06:36:36.990Z,14.35
2019-04-06T06:42:01.735Z,14.57
2019-04-06T06:47:26.267Z,15.15
2019-04-06T06:52:50.417Z,15.98
2019-04-06T06:58:24.836Z,16.02
2019-04-06T07:03:40.046Z,16.44
2019-04-06T07:09:06.678Z,16.93
2019-04-06T07:14:31.032Z,17.17
2019-04-06T07:19:54.794Z,16.31
2019-04-06T07:25:19.295Z,15.64
2019-04-06T07:30:42.669Z,16.45
2019-04-06T07:36:06.278Z,16.58
2019-04-06T07:41:29.710Z,16.96
2019-04-06T07:46:54.062Z,16.91
2019-04-06T07:52:18.064Z,17.94
2019-04-06T07:57:42.231Z,17.32
2019-04-06T08:03:06.153Z,17.31
2019-04-06T08:08:30.024Z,17.61
2019-04-06T08:13:53.915Z,18.67
2019-04-06T08:19:18.501Z,19.75
2019-04-06T08:24:42.609Z,20.12
2019-04-06T08:30:07.611Z,20.80
2019-04-06T08:35:31.163Z,20.69
2019-04-06T08:40:54.622Z,20.94
2019-04-06T08:46:18.396Z,21.02
2019-04-06T08:51:41.988Z,21.15
2019-04-06T08:57:06.108Z,21.30
2019-04-06T09:02:29.736Z,22.38
2019-04-06T09:07:53.974Z,21.43
2019-04-06T09:13:18.498Z,21.07
2019-04-06T09:18:43.898Z,20.88
2019-04-06T09:24:08.084Z,21.75
2019-04-06T09:29:32.285Z,21.75
2019-04-06T09:34:56.818Z,22.02
2019-04-06T09:40:20.749Z,23.33
2019-04-06T09:46:18.560Z,22.81
2019-04-06T09:51:59.447Z,22.95
2019-04-06T09:57:33.769Z,23.11
2019-04-06T10:03:15.685Z,23.27
2019-04-06T10:08:53.283Z,24.48
2019-04-06T10:14:25.687Z,24.16
2019-04-06T10:20:04.376Z,23.83
2019-04-06T10:25:53.692Z,23.83
2019-04-06T10:31:37.344Z,22.96
2019-04-06T10:37:20.385Z,22.74
2019-04-06T10:43:09.398Z,23.41
2019-04-06T10:48:53.179Z,22.53
2019-04-06T10:54:34.044Z,22.73
2019-04-06T11:00:16.172Z,22.60
2019-04-06T11:05:57.697Z,22.85
2019-04-06T11:11:42.158Z,23.41
2019-04-06T11:17:23.588Z,24.01
2019-04-06T11:23:05.498Z,23.64
2019-04-06T11:28:47.851Z,24.35
2019-04-06T11:34:30.621Z,23.47
2019-04-06T11:40:14.068Z,23.78
2019-04-06T11:45:56.739Z,23.49
2019-04-06T11:51:48.561Z,24.11
2019-04-06T11:57:18.358Z,24.67
2019-04-06T12:03:00.567Z,24.32
2019-04-06T12:08:36.009Z,25.34
2019-04-06T12:14:12.630Z,24.69
2019-04-06T12:19:48.423Z,24.47
2019-04-06T12:25:31.435Z,24.73
2019-04-06T12:31:16.950Z,24.81
2019-04-06T12:36:47.175Z,24.92
2019-04-06T12:42:28.577Z,25.34
2019-04-06T12:48:09.706Z,26.18
2019-04-06T12:53:54.743Z,26.94
2019-04-06T12:59:47.025Z,25.80
2019-04-06T13:05:21.164Z,25.92
2019-04-06T13:11:20.161Z,25.39
2019-04-06T13:17:03.432Z,24.83
2019-04-06T13:22:44.648Z,25.34
2019-04-06T13:28:34.433Z,25.14
2019-04-06T13:34:10.823Z,25.28
2019-04-06T13:39:45.073Z,24.49
2019-04-06T13:45:20.454Z,24.79
2019-04-06T13:50:53.767Z,24.99
2019-04-06T13:56:25.317Z,24.48
2019-04-06T14:02:02.013Z,23.84
2019-04-06T14:07:50.345Z,24.30
2019-04-06T14:13:39.197Z,24.35
2019-04-06T14:19:24.203Z,24.77
2019-04-06T14:25:13.853Z,24.63
2019-04-06T14:30:54.972Z,25.09
2019-04-06T14:36:41.729Z,23.84
2019-04-06T14:42:12.763Z,24.05
2019-04-06T14:47:45.061Z,24.59
2019-04-06T14:53:21.143Z,23.88
2019-04-06T14:59:07.445Z,23.59
2019-04-06T15:04:48.927Z,24.00
2019-04-06T15:10:22.569Z,23.86
2019-04-06T15:15:58.736Z,24.52
2019-04-06T15:21:30.979Z,24.01
2019-04-06T15:27:19.640Z,23.54
2019-04-06T15:32:56.011Z,23.24
2019-04-06T15:38:48.605Z,23.45
2019-04-06T15:44:30.186Z,22.74
2019-04-06T15:50:08.713Z,22.62
2019-04-06T15:55:40.091Z,22.87
2019-04-06T16:01:23.760Z,23.14
2019-04-06T16:07:07.338Z,22.74
2019-04-06T16:12:43.456Z,22.75
2019-04-06T16:18:28.971Z,21.99
2019-04-06T16:24:03.072Z,21.29
2019-04-06T16:29:36.946Z,21.14
2019-04-06T16:35:09.852Z,21.13
2019-04-06T16:41:10.502Z,21.01
2019-04-06T16:46:50.556Z,20.80
2019-04-06T16:52:41.383Z,20.86
2019-04-06T16:58:24.726Z,20.97
2019-04-06T17:03:58.901Z,20.76
2019-04-06T17:09:30.064Z,20.59
2019-04-06T17:15:06.356Z,20.43
2019-04-06T17:20:47.473Z,20.09
2019-04-06T17:26:33.748Z,19.78
2019-04-06T17:32:16.569Z,19.27
2019-04-06T17:38:04.969Z,18.80
2019-04-06T17:43:56.729Z,18.57
2019-04-06T17:49:29.278Z,18.27
2019-04-06T17:55:04.878Z,18.04
2019-04-06T18:00:39.465Z,17.79
2019-04-06T18:06:16.349Z,17.65
2019-04-06T18:11:48.063Z,17.52
2019-04-06T18:17:12.871Z,17.37
2019-04-06T18:22:37.867Z,17.21
2019-04-06T18:28:01.637Z,17.07
2019-04-06T18:33:26.100Z,16.81
2019-04-06T18:39:04.177Z,16.71
2019-04-06T18:44:29.056Z,16.59
2019-04-06T18:49:53.760Z,16.50
2019-04-06T18:55:18.242Z,16.36
2019-04-06T19:00:42.339Z,16.22
2019-04-06T19:06:07.133Z,16.11
2019-04-06T19:11:31.327Z,15.95
2019-04-06T19:16:55.956Z,15.89
2019-04-06T19:22:19.820Z,15.87
2019-04-06T19:27:43.673Z,15.94
2019-04-06T19:33:08.331Z,15.70
2019-04-06T19:38:32.544Z,15.63
2019-04-06T19:43:56.603Z,15.59
2019-04-06T19:49:21.160Z,15.53
2019-04-06T19:54:44.699Z,15.61
2019-04-06T20:00:09.743Z,15.64
2019-04-06T20:05:33.304Z,15.65
2019-04-06T20:10:57.643Z,15.70
2019-04-06T20:16:21.822Z,15.63
2019-04-06T20:21:45.510Z,15.48
2019-04-06T20:27:09.382Z,15.50
2019-04-06T20:32:32.893Z,15.45
2019-04-06T20:37:56.257Z,15.41
2019-04-06T20:43:19.813Z,15.27
2019-04-06T20:48:44.682Z,15.15
2019-04-06T20:54:09.194Z,14.96
2019-04-06T20:59:33.231Z,14.83
2019-04-06T21:04:57.812Z,14.75
2019-04-06T21:10:22.158Z,14.64
2019-04-06T21:15:46.365Z,14.40
2019-04-06T21:21:11.003Z,14.30
2019-04-06T21:26:34.483Z,14.10
2019-04-06T21:31:59.507Z,13.92
2019-04-06T21:37:25.452Z,13.84
2019-04-06T21:42:49.089Z,13.66
2019-04-06T21:48:13.517Z,13.32
2019-04-06T21:53:37.815Z,13.17
2019-04-06T21:59:01.627Z,13.16
2019-04-06T22:04:26.919Z,13.05
2019-04-06T22:09:51.597Z,13.22
2019-04-06T22:15:16.367Z,13.24
2019-04-06T22:20:42.050Z,13.14
2019-04-06T22:26:06.198Z,13.11
2019-04-06T22:31:30.555Z,13.02
2019-04-06T22:36:55.937Z,12.98
2019-04-06T22:42:19.670Z,12.88
2019-04-06T22:47:44.123Z,12.81
2019-04-06T22:53:08.746Z,12.82
2019-04-06T22:58:33.395Z,12.64
2019-04-06T23:04:15.191Z,12.57
2019-04-06T23:09:38.541Z,12.50
2019-04-06T23:15:02.048Z,12.31
2019-04-06T23:20:25.919Z,12.22
2019-04-06T23:25:50.233Z,12.10
2019-04-06T23:31:14.718Z,11.83
2019-04-06T23:36:38.123Z,11.51
2019-04-06T23:42:01.839Z,11.29
2019-04-06T23:47:25.625Z,11.03
2019-04-06T23:52:49.226Z,10.77
2019-04-06T23:58:14.065Z,10.57
